createdAt,value
2019-04-16T00:01:31.992Z,4.04
2019-04-16T00:04:37.672Z,3.94
2019-04-16T00:07:39.941Z,3.68
2019-04-16T00:10:47.119Z,3.31
2019-04-16T00:13:44.278Z,2.90
2019-04-16T00:16:31.960Z,2.87
2019-04-16T00:19:20.589Z,2.97
2019-04-16T00:22:25.440Z,3.27
2019-04-16T00:25:13.102Z,2.92
2019-04-16T00:28:01.561Z,3.06
2019-04-16T00:30:49.990Z,3.30
2019-04-16T00:33:39.374Z,3.23
2019-04-16T00:36:27.428Z,3.29
2019-04-16T00:39:24.608Z,3.27
2019-04-16T00:42:11.281Z,3.33
2019-04-16T00:44:59.608Z,3.43
2019-04-16T00:47:51.291Z,3.52
2019-04-16T00:50:37.218Z,3.58
2019-04-16T00:53:25.750Z,3.61
2019-04-16T00:56:16.200Z,3.59
2019-04-16T00:59:03.564Z,3.62
2019-04-16T01:01:51.221Z,3.62
2019-04-16T01:04:39.769Z,3.63
2019-04-16T01:07:28.176Z,3.62
2019-04-16T01:10:16.299Z,3.55
2019-04-16T01:13:04.875Z,3.62
2019-04-16T01:15:53.038Z,3.53
2019-04-16T01:18:41.153Z,3.55
2019-04-16T01:21:28.886Z,3.41
2019-04-16T01:24:17.536Z,3.14
2019-04-16T01:27:06.106Z,3.33
2019-04-16T01:29:54.573Z,3.39
2019-04-16T01:33:00.827Z,3.37
2019-04-16T01:35:56.082Z,3.38
2019-04-16T01:39:10.931Z,3.10
2019-04-16T01:41:46.085Z,3.12
2019-04-16T01:44:33.951Z,3.03
2019-04-16T01:47:22.172Z,3.21
2019-04-16T01:50:12.928Z,2.75
2019-04-16T01:52:59.183Z,2.70
2019-04-16T01:55:46.796Z,2.89
2019-04-16T01:58:34.989Z,2.86
2019-04-16T02:01:23.481Z,2.80
2019-04-16T02:04:11.586Z,2.97
2019-04-16T02:06:59.581Z,2.87
2019-04-16T02:09:47.783Z,2.80
2019-04-16T02:12:35.693Z,2.80
2019-04-16T02:15:23.768Z,2.70
2019-04-16T02:18:12.380Z,2.70
2019-04-16T02:21:00.003Z,2.75
2019-04-16T02:23:48.774Z,2.80
2019-04-16T02:26:38.968Z,2.70
2019-04-16T02:29:29.740Z,2.79
2019-04-16T02:32:16.563Z,2.90
2019-04-16T02:35:04.768Z,2.73
2019-04-16T02:37:53.073Z,2.51
2019-04-16T02:40:41.514Z,2.47
2019-04-16T02:43:29.915Z,2.48
2019-04-16T02:46:18.255Z,2.36
2019-04-16T02:49:06.086Z,2.29
2019-04-16T02:52:20.175Z,2.53
2019-04-16T02:55:33.071Z,2.55
2019-04-16T02:58:34.009Z,2.63
2019-04-16T03:01:34.715Z,2.54
2019-04-16T03:04:27.043Z,2.53
2019-04-16T03:07:15.700Z,2.52
2019-04-16T03:10:03.493Z,2.50
2019-04-16T03:12:54.891Z,2.35
2019-04-16T03:16:02.781Z,1.98
2019-04-16T03:18:59.212Z,1.97
2019-04-16T03:21:47.156Z,1.90
2019-04-16T03:24:37.493Z,1.55
2019-04-16T03:27:24.833Z,1.67
2019-04-16T03:30:13.653Z,1.88
2019-04-16T03:33:10.174Z,1.98
2019-04-16T03:35:51.472Z,1.92
2019-04-16T03:38:42.039Z,2.07
2019-04-16T03:41:28.592Z,2.03
2019-04-16T03:44:17.084Z,1.62
2019-04-16T03:47:05.410Z,1.27
2019-04-16T03:49:53.604Z,1.57
2019-04-16T03:52:45.820Z,1.34
2019-04-16T03:55:32.298Z,1.57
2019-04-16T03:58:20.173Z,1.63
2019-04-16T04:01:08.552Z,1.72
2019-04-16T04:03:57.566Z,1.48
2019-04-16T04:06:46.271Z,1.72
2019-04-16T04:09:34.435Z,1.46
2019-04-16T04:12:22.987Z,0.92
2019-04-16T04:15:10.953Z,0.66
2019-04-16T04:17:59.361Z,0.52
2019-04-16T04:20:50.526Z,0.58
2019-04-16T04:23:36.687Z,0.90
2019-04-16T04:26:24.421Z,1.21
2019-04-16T04:29:12.571Z,1.38
2019-04-16T04:32:03.080Z,1.83
2019-04-16T04:34:49.685Z,2.11
2019-04-16T04:37:37.535Z,2.42
2019-04-16T04:40:26.010Z,2.79
2019-04-16T04:43:14.099Z,2.82
2019-04-16T04:46:01.763Z,2.93
2019-04-16T04:48:55.018Z,3.29
2019-04-16T04:51:42.667Z,3.45
2019-04-16T04:54:28.965Z,3.58
2019-04-16T04:57:17.085Z,3.34
2019-04-16T05:00:08.417Z,3.18
2019-04-16T05:02:55.443Z,3.03
2019-04-16T05:05:48.448Z,3.15
2019-04-16T05:08:36.206Z,3.31
2019-04-16T05:11:24.037Z,3.49
2019-04-16T05:14:11.880Z,3.94
2019-04-16T05:17:00.094Z,4.28
2019-04-16T05:19:48.382Z,4.59
2019-04-16T05:22:36.411Z,4.74
2019-04-16T05:25:24.283Z,4.96
2019-04-16T05:28:13.353Z,4.92
2019-04-16T05:31:02.337Z,4.87
2019-04-16T05:33:50.758Z,5.47
2019-04-16T05:36:40.213Z,5.77
2019-04-16T05:39:29.612Z,6.03
2019-04-16T05:42:18.037Z,6.62
2019-04-16T05:45:06.404Z,6.85
2019-04-16T05:47:54.959Z,6.95
2019-04-16T05:50:42.715Z,7.37
2019-04-16T05:53:30.789Z,7.43
2019-04-16T05:56:36.230Z,7.17
2019-04-16T05:59:24.132Z,7.38
2019-04-16T06:02:31.881Z,7.83
2019-04-16T06:05:19.610Z,8.15
2019-04-16T06:08:14.349Z,8.30
2019-04-16T06:11:02.672Z,8.53
2019-04-16T06:14:00.099Z,8.82
2019-04-16T06:17:05.592Z,9.18
2019-04-16T06:20:11.627Z,9.20
2019-04-16T06:23:05.375Z,8.66
2019-04-16T06:26:18.092Z,8.75
2019-04-16T06:29:25.400Z,9.01
2019-04-16T06:32:36.445Z,9.30
2019-04-16T06:35:44.472Z,9.55
2019-04-16T06:38:37.351Z,9.66
2019-04-16T06:41:48.401Z,9.53
2019-04-16T06:44:44.098Z,9.00
2019-04-16T06:47:51.403Z,9.03
2019-04-16T06:50:58.859Z,9.15
2019-04-16T06:54:04.763Z,9.42
2019-04-16T06:57:12.167Z,9.42
2019-04-16T07:00:08.603Z,10.04
2019-04-16T07:03:27.003Z,10.36
2019-04-16T07:06:35.912Z,10.10
2019-04-16T07:09:42.215Z,10.17
2019-04-16T07:12:37.918Z,9.97
2019-04-16T07:15:28.150Z,9.94
2019-04-16T07:18:12.750Z,10.35
2019-04-16T07:21:00.926Z,10.61
2019-04-16T07:23:49.380Z,10.65
2019-04-16T07:26:39.531Z,10.31
2019-04-16T07:29:46.571Z,10.27
2019-04-16T07:33:00.696Z,10.42
2019-04-16T07:35:55.691Z,10.69
2019-04-16T07:39:28.901Z,10.94
2019-04-16T07:42:11.753Z,10.86
2019-04-16T07:45:23.144Z,10.88
2019-04-16T07:48:38.495Z,10.79
2019-04-16T07:51:37.277Z,10.37
2019-04-16T07:54:37.189Z,10.87
2019-04-16T07:57:25.544Z,11.05
2019-04-16T08:00:14.891Z,10.75
2019-04-16T08:03:03.329Z,11.41
2019-04-16T08:05:51.738Z,11.71
2019-04-16T08:08:39.948Z,12.15
2019-04-16T08:11:27.663Z,11.66
2019-04-16T08:14:15.714Z,11.71
2019-04-16T08:17:03.389Z,11.85
2019-04-16T08:19:55.061Z,11.25
2019-04-16T08:22:40.933Z,11.42
2019-04-16T08:25:33.896Z,11.71
2019-04-16T08:28:20.416Z,11.47
2019-04-16T08:31:12.741Z,11.16
2019-04-16T08:34:00.639Z,11.57
2019-04-16T08:36:49.071Z,11.51
2019-04-16T08:39:39.857Z,11.85
2019-04-16T08:42:29.507Z,12.03
2019-04-16T08:45:16.363Z,12.38
2019-04-16T08:48:04.091Z,12.30
2019-04-16T08:50:52.163Z,12.51
2019-04-16T08:53:39.876Z,12.83
2019-04-16T08:56:27.936Z,13.04
2019-04-16T08:59:16.102Z,13.11
2019-04-16T09:02:04.192Z,13.09
2019-04-16T09:04:52.191Z,13.08
2019-04-16T09:07:40.753Z,12.25
2019-04-16T09:10:30.924Z,12.38
2019-04-16T09:13:20.556Z,12.46
2019-04-16T09:16:10.535Z,12.39
2019-04-16T09:19:01.566Z,12.41
2019-04-16T09:21:50.025Z,12.57
2019-04-16T09:24:44.091Z,12.37
2019-04-16T09:27:40.277Z,11.85
2019-04-16T09:31:05.712Z,12.16
2019-04-16T09:34:28.172Z,12.40
2019-04-16T09:37:40.314Z,12.61
2019-04-16T09:40:48.829Z,12.55
2019-04-16T09:43:40.044Z,12.75
2019-04-16T09:46:48.820Z,12.28
2019-04-16T09:49:16.183Z,12.52
2019-04-16T09:52:04.622Z,12.27
2019-04-16T09:54:53.034Z,11.99
2019-04-16T09:57:41.035Z,12.30
2019-04-16T10:00:34.843Z,12.19
2019-04-16T10:03:40.744Z,12.17
2019-04-16T10:06:28.803Z,12.47
2019-04-16T10:09:21.677Z,12.61
2019-04-16T10:12:07.957Z,12.28
2019-04-16T10:14:56.027Z,12.05
2019-04-16T10:17:44.757Z,12.25
2019-04-16T10:20:33.263Z,12.90
2019-04-16T10:23:43.380Z,13.52
2019-04-16T10:26:31.438Z,13.82
2019-04-16T10:29:19.926Z,14.17
2019-04-16T10:32:08.123Z,13.52
2019-04-16T10:34:56.335Z,13.63
2019-04-16T10:37:44.150Z,13.51
2019-04-16T10:40:43.944Z,13.84
2019-04-16T10:43:56.543Z,13.82
2019-04-16T10:47:01.657Z,13.41
2019-04-16T10:50:14.969Z,13.12
2019-04-16T10:53:18.985Z,13.18
2019-04-16T10:56:24.427Z,13.38
2019-04-16T10:59:34.586Z,13.52
2019-04-16T11:02:43.739Z,13.97
2019-04-16T11:05:37.615Z,13.68
2019-04-16T11:08:28.344Z,14.00
2019-04-16T11:11:16.726Z,14.27
2019-04-16T11:14:04.797Z,13.67
2019-04-16T11:16:52.909Z,13.43
2019-04-16T11:19:41.623Z,13.56
2019-04-16T11:22:29.749Z,14.27
2019-04-16T11:25:18.222Z,14.07
2019-04-16T11:28:08.475Z,14.22
2019-04-16T11:30:58.295Z,14.75
2019-04-16T11:33:46.864Z,14.09
2019-04-16T11:36:35.666Z,13.52
2019-04-16T11:39:24.106Z,13.97
2019-04-16T11:42:11.845Z,14.70
2019-04-16T11:44:59.518Z,14.60
2019-04-16T11:47:48.378Z,14.72
2019-04-16T11:50:36.440Z,15.07
2019-04-16T11:53:24.749Z,14.57
2019-04-16T11:56:12.779Z,14.58
2019-04-16T11:59:01.176Z,15.16
2019-04-16T12:01:54.082Z,15.35
2019-04-16T12:05:04.178Z,15.60
2019-04-16T12:08:00.887Z,15.71
2019-04-16T12:11:10.399Z,15.23
2019-04-16T12:14:29.892Z,14.78
2019-04-16T12:17:16.981Z,14.23
2019-04-16T12:20:43.379Z,14.20
2019-04-16T12:23:48.286Z,14.54
2019-04-16T12:27:05.233Z,14.38
2019-04-16T12:29:58.378Z,13.98
2019-04-16T12:33:00.945Z,13.23
2019-04-16T12:35:57.420Z,12.90
2019-04-16T12:39:10.150Z,12.25
2019-04-16T12:42:17.667Z,11.47
2019-04-16T12:45:20.532Z,10.98
2019-04-16T12:48:14.500Z,11.24
2019-04-16T12:51:16.882Z,11.69
2019-04-16T12:54:25.624Z,12.52
2019-04-16T12:57:22.376Z,13.93
2019-04-16T13:00:31.756Z,14.84
2019-04-16T13:03:34.824Z,15.00
2019-04-16T13:06:40.753Z,16.01
2019-04-16T13:09:44.367Z,16.69
2019-04-16T13:12:49.151Z,16.68
2019-04-16T13:15:58.129Z,16.29
2019-04-16T13:19:05.118Z,14.68
2019-04-16T13:21:59.772Z,14.01
2019-04-16T13:24:59.459Z,13.29
2019-04-16T13:27:50.549Z,12.90
2019-04-16T13:30:37.214Z,13.00
2019-04-16T13:33:25.604Z,13.06
2019-04-16T13:36:13.741Z,12.93
2019-04-16T13:39:07.917Z,12.79
2019-04-16T13:41:55.685Z,12.54
2019-04-16T13:44:47.730Z,12.88
2019-04-16T13:47:45.916Z,13.08
2019-04-16T13:50:53.285Z,12.86
2019-04-16T13:54:06.674Z,13.10
2019-04-16T13:56:57.001Z,12.83
2019-04-16T14:00:05.573Z,12.84
2019-04-16T14:02:59.600Z,13.39
2019-04-16T14:05:47.604Z,13.34
2019-04-16T14:08:35.873Z,12.91
2019-04-16T14:11:24.284Z,13.21
2019-04-16T14:14:17.159Z,14.26
2019-04-16T14:17:08.977Z,16.17
2019-04-16T14:19:51.023Z,17.16
2019-04-16T14:22:39.420Z,17.50
2019-04-16T14:25:28.784Z,17.63
2019-04-16T14:28:18.168Z,17.93
2019-04-16T14:31:06.626Z,17.62
2019-04-16T14:34:13.557Z,17.54
2019-04-16T14:37:01.458Z,17.54
2019-04-16T14:39:33.290Z,18.21
2019-04-16T14:42:03.150Z,16.69
2019-04-16T14:44:37.681Z,14.24
2019-04-16T14:47:07.683Z,13.93
2019-04-16T14:49:37.464Z,13.32
2019-04-16T14:52:07.629Z,13.12
2019-04-16T14:54:42.304Z,12.61
2019-04-16T14:57:12.196Z,12.36
2019-04-16T15:00:00.892Z,12.58
2019-04-16T15:03:02.075Z,12.37
2019-04-16T15:06:03.407Z,12.37
2019-04-16T15:08:50.924Z,12.28
2019-04-16T15:11:38.246Z,12.28
2019-04-16T15:14:14.988Z,12.25
2019-04-16T15:16:58.876Z,12.32
2019-04-16T15:19:34.972Z,12.28
2019-04-16T15:22:22.977Z,12.26
2019-04-16T15:25:17.626Z,12.49
2019-04-16T15:28:03.877Z,12.46
2019-04-16T15:31:04.809Z,12.58
2019-04-16T15:34:11.152Z,12.54
2019-04-16T15:36:49.902Z,12.26
2019-04-16T15:39:21.117Z,12.18
2019-04-16T15:42:05.164Z,12.03
2019-04-16T15:44:41.683Z,12.14
2019-04-16T15:47:36.409Z,12.12
2019-04-16T15:50:14.993Z,12.07
2019-04-16T15:53:03.623Z,11.98
2019-04-16T15:56:01.440Z,11.76
2019-04-16T15:58:48.187Z,11.63
2019-04-16T16:01:24.799Z,11.40
2019-04-16T16:04:22.732Z,11.44
2019-04-16T16:07:07.915Z,11.52
2019-04-16T16:09:58.051Z,11.50
2019-04-16T16:12:28.065Z,11.33
2019-04-16T16:14:57.915Z,11.33
2019-04-16T16:17:27.762Z,11.25
2019-04-16T16:19:57.549Z,11.32
2019-04-16T16:22:27.304Z,11.40
2019-04-16T16:24:57.324Z,11.37
2019-04-16T16:27:27.272Z,11.39
2019-04-16T16:30:00.117Z,11.42
2019-04-16T16:32:29.869Z,11.35
2019-04-16T16:34:59.709Z,11.30
2019-04-16T16:37:29.444Z,11.33
2019-04-16T16:39:59.183Z,11.29
2019-04-16T16:42:28.964Z,11.13
2019-04-16T16:45:01.713Z,11.20
2019-04-16T16:47:39.889Z,11.14
2019-04-16T16:50:16.213Z,11.11
2019-04-16T16:53:00.966Z,11.02
2019-04-16T16:55:34.892Z,11.00
2019-04-16T16:58:24.281Z,10.93
2019-04-16T17:01:14.904Z,10.93
2019-04-16T17:03:52.783Z,10.83
2019-04-16T17:06:22.950Z,10.68
2019-04-16T17:08:52.691Z,10.65
2019-04-16T17:11:22.535Z,10.67
2019-04-16T17:13:52.299Z,10.59
2019-04-16T17:16:23.723Z,10.74
2019-04-16T17:18:53.513Z,10.77
2019-04-16T17:21:23.255Z,10.80
2019-04-16T17:23:53.078Z,10.74
2019-04-16T17:26:25.285Z,10.99
2019-04-16T17:28:55.027Z,10.79
2019-04-16T17:31:24.779Z,10.30
2019-04-16T17:33:54.560Z,10.06
2019-04-16T17:36:24.305Z,9.96
2019-04-16T17:38:54.059Z,10.06
2019-04-16T17:41:27.455Z,9.75
2019-04-16T17:44:14.935Z,9.77
2019-04-16T17:47:03.624Z,10.32
2019-04-16T17:50:02.471Z,10.38
2019-04-16T17:52:51.703Z,10.04
2019-04-16T17:55:43.032Z,9.72
2019-04-16T17:58:28.928Z,9.39
2019-04-16T18:01:26.628Z,9.43
2019-04-16T18:04:10.684Z,9.18
2019-04-16T18:06:47.058Z,9.12
2019-04-16T18:09:27.576Z,8.94
2019-04-16T18:12:16.983Z,8.84
2019-04-16T18:15:16.554Z,8.58
2019-04-16T18:18:18.802Z,8.64
2019-04-16T18:21:06.607Z,8.64
2019-04-16T18:23:53.769Z,8.58
2019-04-16T18:26:36.168Z,8.43
2019-04-16T18:29:24.432Z,8.36
2019-04-16T18:32:03.321Z,8.27
2019-04-16T18:34:51.743Z,8.20
2019-04-16T18:37:43.353Z,7.97
2019-04-16T18:40:28.731Z,8.12
2019-04-16T18:43:16.157Z,8.16
2019-04-16T18:46:03.649Z,8.19
2019-04-16T18:48:35.104Z,8.08
2019-04-16T18:51:05.021Z,8.01
2019-04-16T18:53:34.877Z,8.04
2019-04-16T18:56:05.148Z,8.04
2019-04-16T18:58:35.077Z,7.90
2019-04-16T19:01:11.484Z,7.77
2019-04-16T19:03:41.366Z,7.71
2019-04-16T19:06:11.283Z,7.65
2019-04-16T19:08:42.337Z,7.67
2019-04-16T19:11:12.305Z,7.71
2019-04-16T19:13:42.050Z,7.71
2019-04-16T19:16:11.884Z,7.84
2019-04-16T19:18:41.629Z,7.88
2019-04-16T19:21:11.373Z,7.79
2019-04-16T19:23:44.164Z,7.66
2019-04-16T19:26:13.985Z,7.42
2019-04-16T19:28:45.596Z,7.33
2019-04-16T19:31:15.457Z,7.18
2019-04-16T19:33:45.198Z,7.03
2019-04-16T19:36:14.940Z,6.83
2019-04-16T19:38:44.735Z,6.92
2019-04-16T19:41:14.470Z,6.87
2019-04-16T19:43:47.369Z,6.82
2019-04-16T19:46:17.196Z,6.82
2019-04-16T19:48:46.983Z,6.73
2019-04-16T19:51:19.594Z,6.72
2019-04-16T19:53:48.594Z,6.70
2019-04-16T19:56:19.589Z,6.67
2019-04-16T19:59:07.959Z,6.68
2019-04-16T20:01:59.815Z,6.66
2019-04-16T20:04:45.423Z,6.53
2019-04-16T20:07:34.769Z,6.42
2019-04-16T20:10:22.650Z,6.36
2019-04-16T20:13:11.071Z,6.36
2019-04-16T20:16:00.611Z,6.47
2019-04-16T20:18:51.134Z,6.28
2019-04-16T20:21:38.745Z,5.73
2019-04-16T20:24:27.031Z,5.88
2019-04-16T20:27:17.806Z,5.86
2019-04-16T20:30:08.934Z,5.81
2019-04-16T20:32:57.764Z,5.93
2019-04-16T20:35:50.298Z,5.89
2019-04-16T20:38:35.760Z,5.81
2019-04-16T20:41:24.210Z,5.87
2019-04-16T20:44:12.858Z,5.77
2019-04-16T20:47:03.614Z,5.76
2019-04-16T20:49:50.458Z,5.84
2019-04-16T20:52:38.779Z,5.75
2019-04-16T20:55:27.297Z,5.63
2019-04-16T20:58:15.239Z,5.58
2019-04-16T21:01:03.780Z,5.23
2019-04-16T21:04:04.957Z,5.18
2019-04-16T21:06:47.440Z,5.27
2019-04-16T21:09:35.549Z,5.25
2019-04-16T21:12:24.008Z,5.25
2019-04-16T21:15:11.733Z,5.09
2019-04-16T21:17:59.920Z,5.01
2019-04-16T21:20:50.901Z,4.99
2019-04-16T21:23:37.304Z,4.84
2019-04-16T21:26:25.615Z,4.80
2019-04-16T21:29:23.004Z,4.38
2019-04-16T21:32:21.341Z,4.54
2019-04-16T21:35:16.851Z,4.43
2019-04-16T21:38:21.872Z,3.93
2019-04-16T21:41:10.016Z,4.24
2019-04-16T21:43:58.128Z,4.35
2019-04-16T21:46:49.624Z,4.41
2019-04-16T21:49:38.900Z,4.49
2019-04-16T21:52:25.452Z,4.30
2019-04-16T21:55:13.154Z,4.36
2019-04-16T21:58:01.575Z,3.90
2019-04-16T22:01:09.888Z,3.91
2019-04-16T22:04:04.940Z,4.03
2019-04-16T22:06:53.416Z,4.13
2019-04-16T22:09:41.839Z,4.20
2019-04-16T22:12:30.400Z,4.19
2019-04-16T22:15:18.796Z,4.22
2019-04-16T22:18:08.826Z,4.10
2019-04-16T22:20:56.093Z,4.10
2019-04-16T22:23:47.420Z,4.07
2019-04-16T22:26:35.256Z,4.06
2019-04-16T22:29:23.601Z,3.96
2019-04-16T22:32:12.109Z,3.95
2019-04-16T22:35:00.501Z,3.80
2019-04-16T22:37:49.359Z,3.66
2019-04-16T22:40:44.750Z,3.06
2019-04-16T22:44:04.433Z,3.25
2019-04-16T22:46:56.333Z,3.27
2019-04-16T22:49:44.807Z,3.46
2019-04-16T22:52:32.918Z,3.50
2019-04-16T22:55:24.378Z,3.29
2019-04-16T22:58:23.596Z,3.31
2019-04-16T23:01:14.148Z,3.38
2019-04-16T23:04:03.612Z,3.43
2019-04-16T23:06:51.977Z,3.33
2019-04-16T23:09:40.049Z,3.40
2019-04-16T23:12:28.512Z,3.34
2019-04-16T23:15:17.068Z,3.20
2019-04-16T23:18:05.564Z,3.34
2019-04-16T23:20:53.998Z,3.23
2019-04-16T23:23:42.443Z,3.15
2019-04-16T23:26:33.010Z,3.18
2019-04-16T23:29:20.676Z,3.25
2019-04-16T23:32:09.042Z,3.15
2019-04-16T23:34:56.503Z,3.11
2019-04-16T23:37:44.422Z,3.08
2019-04-16T23:40:33.076Z,3.04
2019-04-16T23:43:55.376Z,2.95
2019-04-16T23:47:11.931Z,2.97
2019-04-16T23:50:10.140Z,2.88
2019-04-16T23:53:07.988Z,2.77
2019-04-16T23:56:21.629Z,2.87
2019-04-16T23:59:19.694Z,2.53
